sensor_id;sensor_type;location;lat;lon;timestamp;pressure;altitude;pressure_sealevel;temperature;humidity
17772;BME280;9010;32.624;-96.938;2022-09-09T00:00:32;98398.22;;;28.65;100.00
17772;BME280;9010;32.624;-96.938;2022-09-09T00:03:12;98393.88;;;28.64;100.00
17772;BME280;9010;32.624;-96.938;2022-09-09T00:05:48;98396.16;;;28.60;100.00
17772;BME280;9010;32.624;-96.938;2022-09-09T00:08:21;98403.25;;;28.55;100.00
17772;BME280;9010;32.624;-96.938;2022-09-09T00:10:56;98395.81;;;28.43;100.00
17772;BME280;9010;32.624;-96.938;2022-09-09T00:13:30;98396.25;;;28.34;100.00
17772;BME280;9010;32.624;-96.938;2022-09-09T00:16:06;98390.44;;;28.30;100.00
17772;BME280;9010;32.624;-96.938;2022-09-09T00:18:45;98386.72;;;28.18;100.00
17772;BME280;9010;32.624;-96.938;2022-09-09T00:21:17;98393.81;;;28.13;100.00
17772;BME280;9010;32.624;-96.938;2022-09-09T00:23:49;98401.97;;;28.06;100.00
17772;BME280;9010;32.624;-96.938;2022-09-09T00:26:24;98395.91;;;27.98;100.00
17772;BME280;9010;32.624;-96.938;2022-09-09T00:29:02;98395.31;;;27.89;100.00
17772;BME280;9010;32.624;-96.938;2022-09-09T00:31:33;98393.03;;;27.79;100.00
17772;BME280;9010;32.624;-96.938;2022-09-09T00:34:09;98403.03;;;27.72;100.00
17772;BME280;9010;32.624;-96.938;2022-09-09T00:36:40;98396.78;;;27.65;100.00
17772;BME280;9010;32.624;-96.938;2022-09-09T00:39:14;98401.38;;;27.58;100.00
17772;BME280;9010;32.624;-96.938;2022-09-09T00:41:50;98396.81;;;27.52;100.00
17772;BME280;9010;32.624;-96.938;2022-09-09T00:44:30;98399.50;;;27.46;100.00
17772;BME280;9010;32.624;-96.938;2022-09-09T00:47:10;98396.75;;;27.39;100.00
17772;BME280;9010;32.624;-96.938;2022-09-09T00:49:49;98407.56;;;27.32;100.00
17772;BME280;9010;32.624;-96.938;2022-09-09T00:52:27;98400.06;;;27.28;100.00
17772;BME280;9010;32.624;-96.938;2022-09-09T00:55:05;98403.41;;;27.23;100.00
17772;BME280;9010;32.624;-96.938;2022-09-09T00:57:36;98402.56;;;27.16;100.00
17772;BME280;9010;32.624;-96.938;2022-09-09T01:00:20;98404.22;;;27.11;100.00
17772;BME280;9010;32.624;-96.938;2022-09-09T01:03:02;98405.03;;;27.05;100.00
17772;BME280;9010;32.624;-96.938;2022-09-09T01:05:40;98402.97;;;27.00;100.00
17772;BME280;9010;32.624;-96.938;2022-09-09T01:08:17;98405.44;;;26.95;100.00
17772;BME280;9010;32.624;-96.938;2022-09-09T01:10:53;98400.25;;;26.87;100.00
17772;BME280;9010;32.624;-96.938;2022-09-09T01:13:25;98412.47;;;26.83;100.00
17772;BME280;9010;32.624;-96.938;2022-09-09T01:15:57;98409.09;;;26.74;100.00
17772;BME280;9010;32.624;-96.938;2022-09-09T01:18:33;98412.41;;;26.70;100.00
17772;BME280;9010;32.624;-96.938;2022-09-09T01:21:09;98408.66;;;26.64;100.00
17772;BME280;9010;32.624;-96.938;2022-09-09T01:23:58;98413.63;;;26.61;100.00
17772;BME280;9010;32.624;-96.938;2022-09-09T01:26:35;98420.44;;;26.57;100.00
17772;BME280;9010;32.624;-96.938;2022-09-09T01:29:08;98414.19;;;26.50;100.00
17772;BME280;9010;32.624;-96.938;2022-09-09T01:31:38;98419.38;;;26.45;100.00
17772;BME280;9010;32.624;-96.938;2022-09-09T01:34:10;98423.88;;;26.38;100.00
17772;BME280;9010;32.624;-96.938;2022-09-09T01:36:42;98418.44;;;26.31;100.00
17772;BME280;9010;32.624;-96.938;2022-09-09T01:39:12;98425.47;;;26.25;100.00
17772;BME280;9010;32.624;-96.938;2022-09-09T01:41:42;98431.25;;;26.22;100.00
17772;BME280;9010;32.624;-96.938;2022-09-09T01:44:11;98427.09;;;26.20;100.00
17772;BME280;9010;32.624;-96.938;2022-09-09T01:46:40;98440.41;;;26.21;100.00
17772;BME280;9010;32.624;-96.938;2022-09-09T01:49:09;98445.78;;;26.21;100.00
17772;BME280;9010;32.624;-96.938;2022-09-09T01:51:38;98444.31;;;26.19;100.00
17772;BME280;9010;32.624;-96.938;2022-09-09T01:54:08;98442.19;;;26.14;100.00
17772;BME280;9010;32.624;-96.938;2022-09-09T01:56:45;98443.22;;;26.13;100.00
17772;BME280;9010;32.624;-96.938;2022-09-09T02:02:11;98461.00;;;26.08;100.00
17772;BME280;9010;32.624;-96.938;2022-09-09T02:04:42;98463.44;;;26.03;100.00
17772;BME280;9010;32.624;-96.938;2022-09-09T02:07:23;98464.25;;;25.97;100.00
17772;BME280;9010;32.624;-96.938;2022-09-09T02:10:01;98454.88;;;25.93;100.00
17772;BME280;9010;32.624;-96.938;2022-09-09T02:12:33;98454.84;;;25.86;100.00
17772;BME280;9010;32.624;-96.938;2022-09-09T02:15:05;98452.91;;;25.80;100.00
17772;BME280;9010;32.624;-96.938;2022-09-09T02:17:36;98463.84;;;25.72;100.00
17772;BME280;9010;32.624;-96.938;2022-09-09T02:20:08;98470.66;;;25.68;100.00
17772;BME280;9010;32.624;-96.938;2022-09-09T02:22:39;98472.69;;;25.66;100.00
17772;BME280;9010;32.624;-96.938;2022-09-09T02:25:10;98466.88;;;25.62;100.00
17772;BME280;9010;32.624;-96.938;2022-09-09T02:27:43;98472.22;;;25.56;100.00
17772;BME280;9010;32.624;-96.938;2022-09-09T02:30:14;98477.13;;;25.52;100.00
17772;BME280;9010;32.624;-96.938;2022-09-09T02:32:43;98482.41;;;25.46;100.00
17772;BME280;9010;32.624;-96.938;2022-09-09T02:35:14;98488.22;;;25.43;100.00
17772;BME280;9010;32.624;-96.938;2022-09-09T02:37:44;98491.53;;;25.45;100.00
17772;BME280;9010;32.624;-96.938;2022-09-09T02:40:14;98495.25;;;25.44;100.00
17772;BME280;9010;32.624;-96.938;2022-09-09T02:42:46;98503.91;;;25.39;100.00
17772;BME280;9010;32.624;-96.938;2022-09-09T02:45:17;98500.13;;;25.34;100.00
17772;BME280;9010;32.624;-96.938;2022-09-09T02:47:51;98501.34;;;25.31;100.00
17772;BME280;9010;32.624;-96.938;2022-09-09T02:50:28;98500.63;;;25.23;100.00
17772;BME280;9010;32.624;-96.938;2022-09-09T02:53:07;98504.72;;;25.19;100.00
17772;BME280;9010;32.624;-96.938;2022-09-09T02:55:44;98509.84;;;25.13;100.00
17772;BME280;9010;32.624;-96.938;2022-09-09T02:58:17;98504.59;;;25.05;100.00
17772;BME280;9010;32.624;-96.938;2022-09-09T03:00:47;98512.38;;;25.00;100.00
17772;BME280;9010;32.624;-96.938;2022-09-09T03:03:17;98508.41;;;24.96;100.00
17772;BME280;9010;32.624;-96.938;2022-09-09T03:05:49;98515.84;;;24.94;100.00
17772;BME280;9010;32.624;-96.938;2022-09-09T03:08:17;98511.84;;;24.90;100.00
17772;BME280;9010;32.624;-96.938;2022-09-09T03:10:46;98511.59;;;24.85;100.00
17772;BME280;9010;32.624;-96.938;2022-09-09T03:13:15;98510.63;;;24.78;100.00
17772;BME280;9010;32.624;-96.938;2022-09-09T03:15:45;98519.25;;;24.74;100.00
17772;BME280;9010;32.624;-96.938;2022-09-09T03:18:14;98515.09;;;24.71;100.00
17772;BME280;9010;32.624;-96.938;2022-09-09T03:20:42;98522.13;;;24.72;100.00
17772;BME280;9010;32.624;-96.938;2022-09-09T03:23:10;98517.78;;;24.71;100.00
17772;BME280;9010;32.624;-96.938;2022-09-09T03:25:39;98520.84;;;24.68;100.00
17772;BME280;9010;32.624;-96.938;2022-09-09T03:28:15;98520.00;;;24.68;100.00
17772;BME280;9010;32.624;-96.938;2022-09-09T03:30:43;98528.28;;;24.66;100.00
17772;BME280;9010;32.624;-96.938;2022-09-09T03:33:12;98524.53;;;24.67;100.00
17772;BME280;9010;32.624;-96.938;2022-09-09T03:35:45;98524.91;;;24.64;100.00
17772;BME280;9010;32.624;-96.938;2022-09-09T03:38:15;98532.34;;;24.62;100.00
17772;BME280;9010;32.624;-96.938;2022-09-09T03:40:49;98530.03;;;24.59;100.00
17772;BME280;9010;32.624;-96.938;2022-09-09T03:43:19;98529.38;;;24.57;100.00
17772;BME280;9010;32.624;-96.938;2022-09-09T03:45:47;98535.13;;;24.54;100.00
17772;BME280;9010;32.624;-96.938;2022-09-09T03:48:16;98545.25;;;24.52;100.00
17772;BME280;9010;32.624;-96.938;2022-09-09T03:50:45;98536.72;;;24.48;100.00
17772;BME280;9010;32.624;-96.938;2022-09-09T03:53:15;98532.06;;;24.42;100.00
17772;BME280;9010;32.624;-96.938;2022-09-09T03:55:44;98530.66;;;24.46;100.00
17772;BME280;9010;32.624;-96.938;2022-09-09T03:58:12;98536.50;;;24.50;100.00
17772;BME280;9010;32.624;-96.938;2022-09-09T04:00:42;98528.81;;;24.47;100.00
17772;BME280;9010;32.624;-96.938;2022-09-09T04:03:11;98530.03;;;24.44;100.00
17772;BME280;9010;32.624;-96.938;2022-09-09T04:05:39;98538.94;;;24.45;100.00
17772;BME280;9010;32.624;-96.938;2022-09-09T04:08:08;98541.81;;;24.43;100.00
17772;BME280;9010;32.624;-96.938;2022-09-09T04:10:37;98537.19;;;24.37;100.00
17772;BME280;9010;32.624;-96.938;2022-09-09T04:13:05;98535.84;;;24.33;100.00
17772;BME280;9010;32.624;-96.938;2022-09-09T04:15:34;98530.22;;;24.28;100.00
17772;BME280;9010;32.624;-96.938;2022-09-09T04:18:04;98531.59;;;24.24;100.00
17772;BME280;9010;32.624;-96.938;2022-09-09T04:20:32;98530.75;;;24.24;100.00
17772;BME280;9010;32.624;-96.938;2022-09-09T04:23:00;98539.66;;;24.24;100.00
17772;BME280;9010;32.624;-96.938;2022-09-09T04:25:29;98536.31;;;24.22;100.00
17772;BME280;9010;32.624;-96.938;2022-09-09T04:27:58;98537.16;;;24.23;100.00
17772;BME280;9010;32.624;-96.938;2022-09-09T04:30:26;98532.50;;;24.17;100.00
17772;BME280;9010;32.624;-96.938;2022-09-09T04:32:55;98532.88;;;24.14;100.00
17772;BME280;9010;32.624;-96.938;2022-09-09T04:35:25;98539.09;;;24.14;100.00
17772;BME280;9010;32.624;-96.938;2022-09-09T04:37:54;98542.31;;;24.10;100.00
17772;BME280;9010;32.624;-96.938;2022-09-09T04:40:22;98542.31;;;24.10;100.00
17772;BME280;9010;32.624;-96.938;2022-09-09T04:42:51;98543.16;;;24.10;100.00
17772;BME280;9010;32.624;-96.938;2022-09-09T04:45:19;98539.94;;;24.15;100.00
17772;BME280;9010;32.624;-96.938;2022-09-09T04:47:47;98538.72;;;24.17;100.00
17772;BME280;9010;32.624;-96.938;2022-09-09T04:50:16;98541.94;;;24.13;100.00
17772;BME280;9010;32.624;-96.938;2022-09-09T04:52:45;98535.25;;;24.09;100.00
17772;BME280;9010;32.624;-96.938;2022-09-09T04:55:14;98539.63;;;24.10;100.00
17772;BME280;9010;32.624;-96.938;2022-09-09T04:57:42;98539.47;;;24.11;100.00
17772;BME280;9010;32.624;-96.938;2022-09-09T05:00:11;98541.41;;;24.17;100.00
17772;BME280;9010;32.624;-96.938;2022-09-09T05:02:40;98539.94;;;24.15;100.00
17772;BME280;9010;32.624;-96.938;2022-09-09T05:05:08;98544.47;;;24.14;100.00
17772;BME280;9010;32.624;-96.938;2022-09-09T05:07:37;98537.88;;;24.17;100.00
17772;BME280;9010;32.624;-96.938;2022-09-09T05:10:07;98545.66;;;24.12;100.00
17772;BME280;9010;32.624;-96.938;2022-09-09T05:12:36;98544.31;;;24.08;100.00
17772;BME280;9010;32.624;-96.938;2022-09-09T05:15:05;98542.66;;;24.07;100.00
17772;BME280;9010;32.624;-96.938;2022-09-09T05:17:34;98539.25;;;24.13;100.00
17772;BME280;9010;32.624;-96.938;2022-09-09T05:20:02;98533.81;;;24.21;100.00
17772;BME280;9010;32.624;-96.938;2022-09-09T05:22:31;98538.44;;;24.27;100.00
17772;BME280;9010;32.624;-96.938;2022-09-09T05:24:59;98538.44;;;24.27;100.00
17772;BME280;9010;32.624;-96.938;2022-09-09T05:27:29;98536.06;;;24.32;100.00
17772;BME280;9010;32.624;-96.938;2022-09-09T05:29:58;98533.19;;;24.33;100.00
17772;BME280;9010;32.624;-96.938;2022-09-09T05:32:26;98540.97;;;24.28;100.00
17772;BME280;9010;32.624;-96.938;2022-09-09T05:34:56;98535.97;;;24.40;100.00
17772;BME280;9010;32.624;-96.938;2022-09-09T05:37:25;98531.13;;;24.35;100.00
17772;BME280;9010;32.624;-96.938;2022-09-09T05:39:53;98535.59;;;24.28;100.00
17772;BME280;9010;32.624;-96.938;2022-09-09T05:42:21;98542.16;;;24.26;100.00
17772;BME280;9010;32.624;-96.938;2022-09-09T05:44:51;98535.47;;;24.22;100.00
17772;BME280;9010;32.624;-96.938;2022-09-09T05:47:20;98535.84;;;24.19;100.00
17772;BME280;9010;32.624;-96.938;2022-09-09T05:49:48;98534.38;;;24.16;100.00
17772;BME280;9010;32.624;-96.938;2022-09-09T05:52:16;98530.19;;;24.14;100.00
17772;BME280;9010;32.624;-96.938;2022-09-09T05:54:45;98538.25;;;24.14;100.00
17772;BME280;9010;32.624;-96.938;2022-09-09T05:57:13;98536.94;;;24.10;100.00
17772;BME280;9010;32.624;-96.938;2022-09-09T05:59:41;98547.69;;;24.10;100.00
17772;BME280;9010;32.624;-96.938;2022-09-09T06:02:11;98543.31;;;24.09;100.00
17772;BME280;9010;32.624;-96.938;2022-09-09T06:04:39;98529.88;;;24.09;100.00
17772;BME280;9010;32.624;-96.938;2022-09-09T06:07:07;98528.56;;;24.04;100.00
17772;BME280;9010;32.624;-96.938;2022-09-09T06:09:36;98517.75;;;23.98;100.00
17772;BME280;9010;32.624;-96.938;2022-09-09T06:12:04;98521.91;;;24.00;100.00
17772;BME280;9010;32.624;-96.938;2022-09-09T06:14:33;98526.06;;;24.03;100.00
17772;BME280;9010;32.624;-96.938;2022-09-09T06:17:01;98514.84;;;23.99;100.00
17772;BME280;9010;32.624;-96.938;2022-09-09T06:19:31;98514.38;;;23.96;100.00
17772;BME280;9010;32.624;-96.938;2022-09-09T06:21:59;98514.56;;;23.94;100.00
17772;BME280;9010;32.624;-96.938;2022-09-09T06:24:27;98512.06;;;23.93;100.00
17772;BME280;9010;32.624;-96.938;2022-09-09T06:26:56;98515.78;;;23.92;100.00
17772;BME280;9010;32.624;-96.938;2022-09-09T06:29:24;98507.41;;;23.87;100.00
17772;BME280;9010;32.624;-96.938;2022-09-09T06:31:52;98500.56;;;23.84;100.00
17772;BME280;9010;32.624;-96.938;2022-09-09T06:34:20;98506.13;;;23.83;100.00
17772;BME280;9010;32.624;-96.938;2022-09-09T06:36:50;98506.28;;;23.81;100.00
17772;BME280;9010;32.624;-96.938;2022-09-09T06:39:19;98513.34;;;23.82;100.00
17772;BME280;9010;32.624;-96.938;2022-09-09T06:41:47;98510.38;;;23.77;100.00
17772;BME280;9010;32.624;-96.938;2022-09-09T06:44:15;98502.69;;;23.74;100.00
17772;BME280;9010;32.624;-96.938;2022-09-09T06:46:44;98501.69;;;23.75;100.00
17772;BME280;9010;32.624;-96.938;2022-09-09T06:49:13;98503.69;;;23.73;100.00
17772;BME280;9010;32.624;-96.938;2022-09-09T06:51:42;98501.34;;;23.70;100.00
17772;BME280;9010;32.624;-96.938;2022-09-09T06:54:12;98502.75;;;23.66;100.00
17772;BME280;9010;32.624;-96.938;2022-09-09T06:56:42;98497.75;;;23.63;100.00
17772;BME280;9010;32.624;-96.938;2022-09-09T06:59:11;98498.09;;;23.60;100.00
17772;BME280;9010;32.624;-96.938;2022-09-09T07:01:41;98494.78;;;23.58;100.00
17772;BME280;9010;32.624;-96.938;2022-09-09T07:04:10;98495.78;;;23.57;100.00
17772;BME280;9010;32.624;-96.938;2022-09-09T07:06:41;98492.44;;;23.55;100.00
17772;BME280;9010;32.624;-96.938;2022-09-09T07:09:12;98495.50;;;23.52;100.00
17772;BME280;9010;32.624;-96.938;2022-09-09T07:11:42;98498.88;;;23.46;100.00
17772;BME280;9010;32.624;-96.938;2022-09-09T07:14:11;98496.72;;;23.41;100.00
17772;BME280;9010;32.624;-96.938;2022-09-09T07:16:40;98493.91;;;23.35;100.00
17772;BME280;9010;32.624;-96.938;2022-09-09T07:19:09;98488.06;;;23.31;100.00
17772;BME280;9010;32.624;-96.938;2022-09-09T07:21:37;98484.91;;;23.28;100.00
17772;BME280;9010;32.624;-96.938;2022-09-09T07:24:06;98481.91;;;23.23;100.00
17772;BME280;9010;32.624;-96.938;2022-09-09T07:26:38;98477.56;;;23.22;100.00
17772;BME280;9010;32.624;-96.938;2022-09-09T07:29:07;98479.31;;;23.15;100.00
17772;BME280;9010;32.624;-96.938;2022-09-09T07:31:38;98476.97;;;23.12;100.00
17772;BME280;9010;32.624;-96.938;2022-09-09T07:34:06;98482.69;;;23.09;100.00
17772;BME280;9010;32.624;-96.938;2022-09-09T07:36:35;98480.34;;;23.06;100.00
17772;BME280;9010;32.624;-96.938;2022-09-09T07:39:05;98476.00;;;23.05;100.00
17772;BME280;9010;32.624;-96.938;2022-09-09T07:41:35;98474.69;;;23.01;100.00
17772;BME280;9010;32.624;-96.938;2022-09-09T07:44:07;98471.38;;;22.99;100.00
17772;BME280;9010;32.624;-96.938;2022-09-09T07:46:37;98467.66;;;23.00;100.00
17772;BME280;9010;32.624;-96.938;2022-09-09T07:49:08;98470.34;;;23.00;100.00
17772;BME280;9010;32.624;-96.938;2022-09-09T07:51:38;98468.00;;;22.97;100.00
17772;BME280;9010;32.624;-96.938;2022-09-09T07:54:08;98471.72;;;22.96;100.00
17772;BME280;9010;32.624;-96.938;2022-09-09T07:56:37;98457.97;;;22.99;100.00
17772;BME280;9010;32.624;-96.938;2022-09-09T07:59:07;98457.63;;;22.94;100.00
17772;BME280;9010;32.624;-96.938;2022-09-09T08:01:38;98459.66;;;22.92;100.00
17772;BME280;9010;32.624;-96.938;2022-09-09T08:04:08;98460.84;;;22.89;100.00
17772;BME280;9010;32.624;-96.938;2022-09-09T08:06:38;98461.88;;;22.88;100.00
17772;BME280;9010;32.624;-96.938;2022-09-09T08:09:08;98466.38;;;22.87;100.00
17772;BME280;9010;32.624;-96.938;2022-09-09T08:11:36;98462.41;;;22.83;100.00
17772;BME280;9010;32.624;-96.938;2022-09-09T08:14:07;98456.38;;;22.81;100.00
17772;BME280;9010;32.624;-96.938;2022-09-09T08:16:37;98450.53;;;22.78;100.00
17772;BME280;9010;32.624;-96.938;2022-09-09T08:19:06;98453.56;;;22.75;100.00
17772;BME280;9010;32.624;-96.938;2022-09-09T08:21:36;98455.75;;;22.71;100.00
17772;BME280;9010;32.624;-96.938;2022-09-09T08:24:06;98456.78;;;22.70;100.00
17772;BME280;9010;32.624;-96.938;2022-09-09T08:26:38;98463.81;;;22.71;100.00
17772;BME280;9010;32.624;-96.938;2022-09-09T08:29:09;98460.47;;;22.69;100.00
17772;BME280;9010;32.624;-96.938;2022-09-09T08:31:38;98459.13;;;22.65;100.00
17772;BME280;9010;32.624;-96.938;2022-09-09T08:34:07;98466.34;;;22.65;100.00
17772;BME280;9010;32.624;-96.938;2022-09-09T08:36:38;98460.50;;;22.61;100.00
17772;BME280;9010;32.624;-96.938;2022-09-09T08:39:07;98465.50;;;22.56;100.00
17772;BME280;9010;32.624;-96.938;2022-09-09T08:41:57;98459.34;;;22.56;100.00
17772;BME280;9010;32.624;-96.938;2022-09-09T08:44:41;98455.69;;;22.49;100.00
17772;BME280;9010;32.624;-96.938;2022-09-09T08:47:21;98455.53;;;22.42;100.00
17772;BME280;9010;32.624;-96.938;2022-09-09T08:50:13;98453.91;;;22.33;100.00
17772;BME280;9010;32.624;-96.938;2022-09-09T08:52:52;98456.59;;;22.33;100.00
17772;BME280;9010;32.624;-96.938;2022-09-09T08:55:25;98453.06;;;22.32;100.00
17772;BME280;9010;32.624;-96.938;2022-09-09T08:57:57;98455.91;;;22.31;100.00
17772;BME280;9010;32.624;-96.938;2022-09-09T09:00:35;98458.59;;;22.31;100.00
17772;BME280;9010;32.624;-96.938;2022-09-09T09:03:18;98456.09;;;22.29;100.00
17772;BME280;9010;32.624;-96.938;2022-09-09T09:05:57;98460.09;;;22.33;100.00
17772;BME280;9010;32.624;-96.938;2022-09-09T09:08:34;98455.22;;;22.37;100.00
17772;BME280;9010;32.624;-96.938;2022-09-09T09:11:05;98452.03;;;22.33;100.00
17772;BME280;9010;32.624;-96.938;2022-09-09T09:13:35;98455.25;;;22.29;100.00
17772;BME280;9010;32.624;-96.938;2022-09-09T09:16:17;98457.28;;;22.27;100.00
17772;BME280;9010;32.624;-96.938;2022-09-09T09:18:47;98458.63;;;22.23;100.00
17772;BME280;9010;32.624;-96.938;2022-09-09T09:21:19;98471.03;;;22.24;100.00
17772;BME280;9010;32.624;-96.938;2022-09-09T09:23:55;98460.13;;;22.25;100.00
17772;BME280;9010;32.624;-96.938;2022-09-09T09:26:27;98464.31;;;22.20;100.00
17772;BME280;9010;32.624;-96.938;2022-09-09T09:31:50;98459.50;;;22.15;100.00
17772;BME280;9010;32.624;-96.938;2022-09-09T09:34:20;98462.81;;;22.17;100.00
17772;BME280;9010;32.624;-96.938;2022-09-09T09:36:54;98458.00;;;22.13;100.00
17772;BME280;9010;32.624;-96.938;2022-09-09T09:39:24;98457.69;;;22.00;100.00
17772;BME280;9010;32.624;-96.938;2022-09-09T09:41:53;98457.69;;;22.00;100.00
17772;BME280;9010;32.624;-96.938;2022-09-09T09:44:24;98461.38;;;21.99;100.00
17772;BME280;9010;32.624;-96.938;2022-09-09T09:47:05;98452.66;;;21.97;100.00
17772;BME280;9010;32.624;-96.938;2022-09-09T09:49:34;98462.06;;;21.93;100.00
17772;BME280;9010;32.624;-96.938;2022-09-09T09:52:04;98456.69;;;21.85;100.00
17772;BME280;9010;32.624;-96.938;2022-09-09T09:54:37;98454.69;;;21.87;100.00
17772;BME280;9010;32.624;-96.938;2022-09-09T09:57:10;98466.72;;;21.83;100.00
17772;BME280;9010;32.624;-96.938;2022-09-09T09:59:39;98465.06;;;21.82;100.00
17772;BME280;9010;32.624;-96.938;2022-09-09T10:02:20;98462.53;;;21.80;100.00
17772;BME280;9010;32.624;-96.938;2022-09-09T10:05:01;98462.06;;;21.76;100.00
17772;BME280;9010;32.624;-96.938;2022-09-09T10:07:30;98469.41;;;21.74;100.00
17772;BME280;9010;32.624;-96.938;2022-09-09T10:09:59;98463.59;;;21.71;100.00
17772;BME280;9010;32.624;-96.938;2022-09-09T10:12:39;98467.41;;;21.68;100.00
17772;BME280;9010;32.624;-96.938;2022-09-09T10:15:26;98463.44;;;21.56;100.00
17772;BME280;9010;32.624;-96.938;2022-09-09T10:18:08;98462.09;;;21.44;100.00
17772;BME280;9010;32.624;-96.938;2022-09-09T10:20:48;98455.72;;;21.37;100.00
17772;BME280;9010;32.624;-96.938;2022-09-09T10:23:33;98454.06;;;21.36;100.00
17772;BME280;9010;32.624;-96.938;2022-09-09T10:26:26;98454.22;;;21.27;100.00
17772;BME280;9010;32.624;-96.938;2022-09-09T10:29:10;98450.03;;;21.24;100.00
17772;BME280;9010;32.624;-96.938;2022-09-09T10:31:49;98457.75;;;21.27;100.00
17772;BME280;9010;32.624;-96.938;2022-09-09T10:34:32;98455.72;;;21.29;100.00
17772;BME280;9010;32.624;-96.938;2022-09-09T10:37:11;98454.72;;;21.30;100.00
17772;BME280;9010;32.624;-96.938;2022-09-09T10:39:45;98446.38;;;21.33;100.00
17772;BME280;9010;32.624;-96.938;2022-09-09T10:42:14;98460.41;;;21.35;100.00
17772;BME280;9010;32.624;-96.938;2022-09-09T10:45:02;98456.09;;;21.34;100.00
17772;BME280;9010;32.624;-96.938;2022-09-09T10:47:57;98458.25;;;21.31;100.00
17772;BME280;9010;32.624;-96.938;2022-09-09T10:50:49;98454.06;;;21.28;100.00
17772;BME280;9010;32.624;-96.938;2022-09-09T10:53:28;98452.72;;;21.32;100.00
17772;BME280;9010;32.624;-96.938;2022-09-09T10:56:04;98450.03;;;21.32;100.00
17772;BME280;9010;32.624;-96.938;2022-09-09T10:58:38;98450.72;;;21.34;100.00
17772;BME280;9010;32.624;-96.938;2022-09-09T11:01:15;98456.41;;;21.31;100.00
17772;BME280;9010;32.624;-96.938;2022-09-09T11:03:47;98456.75;;;21.28;100.00
17772;BME280;9010;32.624;-96.938;2022-09-09T11:06:20;98455.91;;;21.28;100.00
17772;BME280;9010;32.624;-96.938;2022-09-09T11:08:50;98448.72;;;21.28;100.00
17772;BME280;9010;32.624;-96.938;2022-09-09T11:11:26;98451.41;;;21.28;100.00
17772;BME280;9010;32.624;-96.938;2022-09-09T11:14:01;98451.72;;;21.25;100.00
17772;BME280;9010;32.624;-96.938;2022-09-09T11:16:35;98453.38;;;21.26;100.00
17772;BME280;9010;32.624;-96.938;2022-09-09T11:19:14;98452.91;;;21.23;100.00
17772;BME280;9010;32.624;-96.938;2022-09-09T11:21:46;98451.72;;;21.25;100.00
17772;BME280;9010;32.624;-96.938;2022-09-09T11:24:20;98457.75;;;21.27;100.00
17772;BME280;9010;32.624;-96.938;2022-09-09T11:26:53;98458.41;;;21.29;100.00
17772;BME280;9010;32.624;-96.938;2022-09-09T11:29:54;98461.41;;;21.26;100.00
17772;BME280;9010;32.624;-96.938;2022-09-09T11:32:47;98466.75;;;21.26;100.00
17772;BME280;9010;32.624;-96.938;2022-09-09T11:35:33;98472.09;;;21.26;100.00
17772;BME280;9010;32.624;-96.938;2022-09-09T11:38:17;98470.78;;;21.22;100.00
17772;BME280;9010;32.624;-96.938;2022-09-09T11:40:55;98469.28;;;21.19;100.00
17772;BME280;9010;32.624;-96.938;2022-09-09T11:43:28;98471.44;;;21.16;100.00
17772;BME280;9010;32.624;-96.938;2022-09-09T11:46:00;98463.22;;;21.09;100.00
17772;BME280;9010;32.624;-96.938;2022-09-09T11:48:32;98470.41;;;21.09;100.00
17772;BME280;9010;32.624;-96.938;2022-09-09T11:51:04;98476.41;;;21.03;100.00
17772;BME280;9010;32.624;-96.938;2022-09-09T11:53:35;98472.06;;;21.02;100.00
17772;BME280;9010;32.624;-96.938;2022-09-09T11:56:24;98476.41;;;21.03;100.00
17772;BME280;9010;32.624;-96.938;2022-09-09T11:59:04;98483.06;;;20.99;100.00
17772;BME280;9010;32.624;-96.938;2022-09-09T12:01:40;98484.75;;;21.00;100.00
17772;BME280;9010;32.624;-96.938;2022-09-09T12:04:35;98491.94;;;20.99;100.00
17772;BME280;9010;32.624;-96.938;2022-09-09T12:07:25;98484.06;;;20.98;100.00
17772;BME280;9010;32.624;-96.938;2022-09-09T12:09:59;98491.94;;;20.99;100.00
17772;BME280;9010;32.624;-96.938;2022-09-09T12:12:31;98499.44;;;20.96;100.00
17772;BME280;9010;32.624;-96.938;2022-09-09T12:15:20;98502.78;;;20.98;100.00
17772;BME280;9010;32.624;-96.938;2022-09-09T12:17:50;98501.78;;;20.99;100.00
17772;BME280;9010;32.624;-96.938;2022-09-09T12:20:21;98502.44;;;21.01;100.00
17772;BME280;9010;32.624;-96.938;2022-09-09T12:26:10;98506.13;;;21.00;100.00
17772;BME280;9010;32.624;-96.938;2022-09-09T12:29:00;98509.47;;;21.02;100.00
17772;BME280;9010;32.624;-96.938;2022-09-09T12:31:34;98513.97;;;21.01;100.00
17772;BME280;9010;32.624;-96.938;2022-09-09T12:34:13;98512.66;;;21.05;100.00
17772;BME280;9010;32.624;-96.938;2022-09-09T12:36:44;98516.16;;;21.06;100.00
17772;BME280;9010;32.624;-96.938;2022-09-09T12:39:19;98520.50;;;21.07;100.00
17772;BME280;9010;32.624;-96.938;2022-09-09T12:41:55;98523.19;;;21.07;100.00
17772;BME280;9010;32.624;-96.938;2022-09-09T12:44:24;98519.38;;;21.09;100.00
17772;BME280;9010;32.624;-96.938;2022-09-09T12:46:54;98513.56;;;21.14;100.00
17772;BME280;9010;32.624;-96.938;2022-09-09T12:49:28;98516.22;;;21.14;100.00
17772;BME280;9010;32.624;-96.938;2022-09-09T12:51:58;98512.50;;;21.07;100.00
17772;BME280;9010;32.624;-96.938;2022-09-09T12:54:26;98530.78;;;21.19;100.00
17772;BME280;9010;32.624;-96.938;2022-09-09T12:56:57;98528.75;;;21.22;100.00
17772;BME280;9010;32.624;-96.938;2022-09-09T12:59:27;98541.47;;;21.28;100.00
17772;BME280;9010;32.624;-96.938;2022-09-09T13:02:02;98539.13;;;21.33;100.00
17772;BME280;9010;32.624;-96.938;2022-09-09T13:04:39;98543.84;;;21.39;100.00
17772;BME280;9010;32.624;-96.938;2022-09-09T13:07:07;98547.69;;;21.44;100.00
17772;BME280;9010;32.624;-96.938;2022-09-09T13:09:37;98547.34;;;21.47;100.00
17772;BME280;9010;32.624;-96.938;2022-09-09T13:12:13;98544.69;;;21.55;100.00
17772;BME280;9010;32.624;-96.938;2022-09-09T13:14:44;98550.88;;;21.64;100.00
17772;BME280;9010;32.624;-96.938;2022-09-09T13:17:21;98556.56;;;21.69;100.00